Time;durP1;ratioP1;P1;durP2;ratioP2;P2;SDS_P1;SDS_P2;PMS_P1;PMS_P2;Temp;Humidity;BMP_temperature;BMP_pressure;BME280_temperature;BME280_humidity;BME280_pressure;Samples;Min_cycle;Max_cycle;Signal;HPM_P1;HPM_P2
2020/12/31 00:01:49;;;;;;;4.17;3.10;;;;;;;1.27;100.00;97266.20;3536067;84;43496;-16
2020/12/31 00:06:55;;;;;;;4.60;3.30;;;;;;;1.26;100.00;97269.82;3612309;80;44842;-17
2020/12/31 00:12:01;;;;;;;3.60;3.10;;;;;;;1.18;100.00;97276.63;3593285;82;42984;-17
2020/12/31 00:17:07;;;;;;;4.03;2.97;;;;;;;1.19;100.00;97266.38;3663671;79;43583;-17
2020/12/31 00:22:13;;;;;;;3.50;2.80;;;;;;;1.20;100.00;97268.06;3636077;80;43726;-17
2020/12/31 00:27:18;;;;;;;3.57;2.67;;;;;;;1.18;100.00;97262.52;3696016;80;44063;-16
2020/12/31 00:32:25;;;;;;;3.87;3.10;;;;;;;1.23;100.00;97269.61;3636007;80;43975;-17
2020/12/31 00:37:35;;;;;;;3.67;3.00;;;;;;;1.25;100.00;97272.12;3616368;81;44108;-17
2020/12/31 00:42:40;;;;;;;4.70;2.83;;;;;;;1.23;100.00;97276.23;3576027;83;43699;-17
2020/12/31 00:47:47;;;;;;;5.33;2.90;;;;;;;1.23;100.00;97275.73;3583054;81;44164;-16
2020/12/31 00:52:53;;;;;;;3.70;2.60;;;;;;;1.20;100.00;97280.00;3636766;79;43713;-17
2020/12/31 00:57:59;;;;;;;3.33;2.57;;;;;;;1.07;100.00;97285.98;3641808;80;43705;-17
2020/12/31 01:03:08;;;;;;;4.10;2.77;;;;;;;1.12;100.00;97279.79;3625552;81;44419;-17
2020/12/31 01:08:14;;;;;;;5.00;2.90;;;;;;;1.06;100.00;97277.67;3699321;79;43718;-16
2020/12/31 01:13:19;;;;;;;4.63;2.77;;;;;;;0.96;100.00;97279.42;3641722;80;44125;-16
2020/12/31 01:18:25;;;;;;;4.07;2.60;;;;;;;0.89;100.00;97277.77;3649212;80;44510;-16
2020/12/31 01:23:31;;;;;;;3.20;2.73;;;;;;;0.84;100.00;97282.14;3697377;79;43474;-19
2020/12/31 01:28:37;;;;;;;3.10;2.50;;;;;;;0.75;100.00;97282.41;3643750;81;43276;-16
2020/12/31 01:33:43;;;;;;;3.77;2.80;;;;;;;0.68;100.00;97287.02;3760580;79;44724;-16
2020/12/31 01:38:49;;;;;;;3.80;2.90;;;;;;;0.55;100.00;97288.03;3695041;80;43117;-18
2020/12/31 01:44:09;;;;;;;4.03;3.03;;;;;;;0.47;100.00;97294.45;3704199;80;44028;-16
2020/12/31 01:49:19;;;;;;;4.07;2.70;;;;;;;0.46;100.00;97292.77;3658608;79;42938;-16
2020/12/31 01:54:26;;;;;;;3.90;2.50;;;;;;;0.38;100.00;97284.61;3760792;77;42958;-16
2020/12/31 01:59:33;;;;;;;3.67;2.67;;;;;;;0.32;100.00;97275.83;3695110;80;44086;-17
2020/12/31 02:04:40;;;;;;;3.10;2.27;;;;;;;0.26;100.00;97280.67;3703820;80;44478;-17
2020/12/31 02:09:46;;;;;;;3.77;2.67;;;;;;;0.18;100.00;97281.76;3674504;79;44011;-17
2020/12/31 02:14:53;;;;;;;3.40;2.50;;;;;;;0.06;100.00;97282.78;3702013;80;44453;-17
2020/12/31 02:19:59;;;;;;;3.53;2.30;;;;;;;0.06;100.00;97279.63;3622624;80;43995;-17
2020/12/31 02:25:05;;;;;;;3.30;2.40;;;;;;;0.06;100.00;97276.16;3717222;77;43709;-17
2020/12/31 02:30:11;;;;;;;3.97;2.83;;;;;;;0.03;100.00;97276.39;3748073;79;44027;-17
2020/12/31 02:35:17;;;;;;;5.53;2.83;;;;;;;0.06;100.00;97270.36;3675619;79;43041;-17
2020/12/31 02:40:23;;;;;;;3.23;2.70;;;;;;;0.18;100.00;97266.36;3695315;79;43397;-17
2020/12/31 02:45:29;;;;;;;4.53;3.27;;;;;;;0.30;100.00;97271.48;3615044;80;44075;-17
2020/12/31 02:50:34;;;;;;;4.83;3.00;;;;;;;0.25;100.00;97264.88;3737788;78;44212;-17
2020/12/31 02:55:40;;;;;;;4.37;2.97;;;;;;;0.30;100.00;97271.48;3744103;79;43404;-17
2020/12/31 03:00:46;;;;;;;3.90;2.97;;;;;;;0.39;100.00;97281.00;3733683;77;43725;-18
2020/12/31 03:05:52;;;;;;;3.73;2.73;;;;;;;0.30;100.00;97283.41;3737117;79;44175;-18
2020/12/31 03:10:58;;;;;;;4.03;3.00;;;;;;;0.26;100.00;97280.67;3688453;79;44324;-17
2020/12/31 03:16:03;;;;;;;4.67;3.00;;;;;;;0.19;100.00;97287.41;3692023;79;44494;-18
2020/12/31 03:21:09;;;;;;;4.87;2.70;;;;;;;0.21;100.00;97279.37;3717251;79;42862;-18
2020/12/31 03:26:15;;;;;;;3.87;2.80;;;;;;;0.21;100.00;97277.55;3754920;79;42832;-18
2020/12/31 03:36:35;;;;;;;6.43;3.10;;;;;;;0.44;100.00;97282.77;4025066;73;30659;-16
2020/12/31 03:41:41;;;;;;;3.90;2.50;;;;;;;0.44;100.00;97285.42;3891794;76;43330;-17
2020/12/31 03:46:47;;;;;;;4.60;2.50;;;;;;;0.38;100.00;97274.84;3897938;75;43286;-17
2020/12/31 03:51:53;;;;;;;3.80;2.73;;;;;;;0.47;100.00;97284.34;3960284;75;44026;-17
2020/12/31 03:56:59;;;;;;;4.03;2.90;;;;;;;0.52;100.00;97276.38;3958531;75;44184;-17
2020/12/31 04:02:05;;;;;;;3.87;2.77;;;;;;;0.41;100.00;97275.09;3954890;73;43723;-17
2020/12/31 04:07:11;;;;;;;3.97;2.60;;;;;;;0.49;100.00;97263.38;3934424;75;43459;-18
2020/12/31 04:12:18;;;;;;;3.00;2.30;;;;;;;0.44;100.00;97256.27;3930368;73;43329;-17
2020/12/31 04:17:23;;;;;;;3.07;2.40;;;;;;;0.35;100.00;97246.44;3935091;74;43718;-16
2020/12/31 04:22:30;;;;;;;3.90;2.73;;;;;;;0.41;100.00;97249.42;3957154;75;44117;-17
2020/12/31 04:27:36;;;;;;;5.07;3.27;;;;;;;0.39;100.00;97245.23;3920723;73;44029;-17
2020/12/31 04:32:42;;;;;;;4.07;2.53;;;;;;;0.30;100.00;97250.30;3960207;74;44487;-17
2020/12/31 04:37:48;;;;;;;4.37;3.07;;;;;;;0.23;100.00;97249.13;3950976;73;44034;-17
2020/12/31 04:42:55;;;;;;;4.07;3.00;;;;;;;0.17;100.00;97253.62;3918517;75;44706;-18
2020/12/31 04:48:08;;;;;;;4.03;2.90;;;;;;;0.14;100.00;97253.86;3940971;74;44105;-18
2020/12/31 04:53:13;;;;;;;3.60;2.60;;;;;;;0.11;100.00;97260.72;3954274;74;44787;-18
2020/12/31 04:58:20;;;;;;;3.87;3.00;;;;;;;0.13;100.00;97256.14;3945042;74;44170;-18
2020/12/31 05:03:26;;;;;;;3.90;2.83;;;;;;;0.18;100.00;97254.44;3989019;74;43069;-18
2020/12/31 05:08:32;;;;;;;3.43;2.60;;;;;;;0.18;100.00;97253.12;3971972;73;44083;-18
2020/12/31 05:13:45;;;;;;;5.90;3.23;;;;;;;0.20;100.00;97254.67;3988691;74;44084;-19
2020/12/31 05:18:51;;;;;;;4.80;3.00;;;;;;;0.16;100.00;97261.20;3988810;74;43684;-18
2020/12/31 05:24:00;;;;;;;4.57;3.40;;;;;;;0.21;100.00;97264.30;3989212;74;43997;-18
2020/12/31 05:29:08;;;;;;;4.20;3.23;;;;;;;0.20;100.00;97253.34;3941847;74;43314;-18
2020/12/31 05:34:29;;;;;;;5.17;3.60;;;;;;;0.22;100.00;97257.21;3948050;74;43460;-19
2020/12/31 05:39:36;;;;;;;5.00;3.70;;;;;;;0.24;100.00;97259.23;3937037;73;44379;-19
2020/12/31 05:45:07;;;;;;;5.37;3.90;;;;;;;0.23;100.00;97268.99;3910326;74;43328;-18
2020/12/31 05:50:24;;;;;;;6.97;4.20;;;;;;;0.21;100.00;97272.25;3970090;74;44044;-18
2020/12/31 05:55:32;;;;;;;6.33;3.90;;;;;;;0.23;100.00;97273.47;3974460;74;43259;-19
2020/12/31 06:00:39;;;;;;;5.93;4.20;;;;;;;0.24;100.00;97275.98;3973239;74;43446;-18
2020/12/31 06:05:48;;;;;;;8.07;4.83;;;;;;;0.21;100.00;97274.06;3973349;74;44090;-19
2020/12/31 06:10:57;;;;;;;6.63;4.40;;;;;;;0.21;100.00;97272.74;3950503;73;43393;-19
2020/12/31 06:16:06;;;;;;;8.00;4.93;;;;;;;0.24;100.00;97283.92;3914824;74;42956;-18
2020/12/31 06:21:14;;;;;;;6.77;4.73;;;;;;;0.20;100.00;97291.75;3973455;74;43007;-19
2020/12/31 06:26:23;;;;;;;6.43;4.40;;;;;;;0.12;100.00;97295.51;3968179;74;43710;-18
2020/12/31 06:31:29;;;;;;;7.63;5.17;;;;;;;-0.01;100.00;97299.14;3890982;75;43682;-17
2020/12/31 06:36:36;;;;;;;7.90;5.30;;;;;;;-0.12;100.00;97295.67;3790374;77;43169;-16
2020/12/31 06:41:42;;;;;;;8.07;5.30;;;;;;;-0.21;100.00;97299.39;3933958;74;44200;-17
2020/12/31 06:46:49;;;;;;;6.80;5.03;;;;;;;-0.29;100.00;97312.39;3914571;74;43639;-16
2020/12/31 06:51:55;;;;;;;7.07;4.97;;;;;;;-0.40;100.00;97313.72;3888750;74;44055;-16
2020/12/31 06:57:00;;;;;;;8.40;5.33;;;;;;;-0.47;100.00;97322.62;3869024;75;44046;-17
2020/12/31 07:02:20;;;;;;;8.73;5.30;;;;;;;-0.50;100.00;97318.41;3934474;74;43388;-17
2020/12/31 07:07:28;;;;;;;9.97;6.00;;;;;;;-0.37;100.00;97327.55;3934443;75;43475;-17
2020/12/31 07:12:36;;;;;;;8.63;5.00;;;;;;;-0.12;100.00;97335.39;3934490;75;43697;-17
2020/12/31 07:17:43;;;;;;;7.60;5.10;;;;;;;-0.02;100.00;97338.98;3911659;74;44097;-17
2020/12/31 07:22:51;;;;;;;7.57;5.20;;;;;;;0.07;100.00;97338.72;3934240;75;43673;-18
2020/12/31 07:27:57;;;;;;;8.40;5.40;;;;;;;0.11;100.00;97334.41;3933374;75;44031;-17
2020/12/31 07:33:04;;;;;;;10.83;6.50;;;;;;;0.11;100.00;97326.92;3934364;74;44090;-17
2020/12/31 07:38:12;;;;;;;7.60;5.53;;;;;;;0.13;100.00;97320.53;3940980;74;44026;-17
2020/12/31 07:43:19;;;;;;;7.93;5.23;;;;;;;0.17;100.00;97324.27;3974282;74;44071;-17
2020/12/31 07:48:27;;;;;;;11.83;6.83;;;;;;;0.21;100.00;97326.55;3971392;73;42991;-17
2020/12/31 07:53:35;;;;;;;13.10;7.47;;;;;;;0.22;100.00;97333.53;3974199;74;43330;-17
2020/12/31 07:58:42;;;;;;;7.53;5.10;;;;;;;0.20;100.00;97328.83;3974039;74;44050;-18
2020/12/31 08:03:48;;;;;;;7.70;5.23;;;;;;;0.15;100.00;97332.34;3974117;74;44452;-18
2020/12/31 08:08:56;;;;;;;7.30;5.10;;;;;;;0.18;100.00;97329.92;3960312;74;43698;-17
2020/12/31 08:14:04;;;;;;;7.47;5.17;;;;;;;0.17;100.00;97325.59;3908529;76;43436;-17
2020/12/31 08:19:12;;;;;;;8.30;5.30;;;;;;;0.21;100.00;97323.89;3922486;73;44022;-18
2020/12/31 08:24:20;;;;;;;9.40;5.30;;;;;;;0.29;100.00;97331.23;3905902;76;43666;-17
2020/12/31 08:29:31;;;;;;;8.00;5.57;;;;;;;0.30;100.00;97324.47;3952580;74;43733;-17
2020/12/31 08:34:38;;;;;;;7.87;5.13;;;;;;;0.32;100.00;97325.69;3924232;74;42692;-17
2020/12/31 08:39:48;;;;;;;7.70;4.70;;;;;;;0.36;100.00;97324.45;3942761;74;44049;-18
2020/12/31 08:44:57;;;;;;;6.67;4.87;;;;;;;0.38;100.00;97317.23;3974555;74;44069;-18
2020/12/31 08:50:04;;;;;;;6.47;4.90;;;;;;;0.47;100.00;97321.45;3974483;74;43699;-18
2020/12/31 08:55:11;;;;;;;6.27;4.47;;;;;;;0.58;100.00;97322.23;3909959;73;44037;-18
2020/12/31 09:00:18;;;;;;;6.70;4.90;;;;;;;0.73;100.00;97324.61;3960269;74;43998;-18
2020/12/31 09:05:24;;;;;;;7.07;4.77;;;;;;;0.85;100.00;97317.42;3906731;75;44528;-18
2020/12/31 09:10:32;;;;;;;6.30;4.50;;;;;;;0.97;100.00;97322.21;3909597;74;43447;-18
2020/12/31 09:15:38;;;;;;;5.93;3.80;;;;;;;1.07;100.00;97317.31;3906144;74;43479;-18
2020/12/31 09:20:45;;;;;;;7.13;4.70;;;;;;;1.15;100.00;97314.02;3955640;74;44437;-18
2020/12/31 09:25:52;;;;;;;5.60;4.20;;;;;;;1.23;100.00;97312.88;3966774;73;44520;-18
2020/12/31 09:31:00;;;;;;;6.13;4.20;;;;;;;1.30;100.00;97319.02;3919411;74;44173;-18
2020/12/31 09:36:06;;;;;;;6.90;4.47;;;;;;;1.38;100.00;97311.23;3914428;74;43416;-18
2020/12/31 09:41:14;;;;;;;6.73;4.67;;;;;;;1.51;100.00;97306.56;3905258;74;44080;-18
2020/12/31 09:46:21;;;;;;;7.33;5.53;;;;;;;1.57;100.00;97302.53;3905045;74;44534;-18
2020/12/31 09:51:28;;;;;;;6.83;4.67;;;;;;;1.66;100.00;97300.91;3955838;74;44430;-18
2020/12/31 09:56:34;;;;;;;5.97;4.33;;;;;;;1.76;100.00;97293.82;3919155;73;42619;-18
2020/12/31 10:01:40;;;;;;;5.87;4.30;;;;;;;1.88;100.00;97299.03;3905540;74;43388;-18
2020/12/31 10:06:47;;;;;;;6.70;4.60;;;;;;;1.97;100.00;97287.59;3938427;74;43320;-18
2020/12/31 10:11:55;;;;;;;7.33;4.43;;;;;;;2.07;100.00;97280.48;3938581;74;44050;-18
2020/12/31 10:17:03;;;;;;;5.57;4.27;;;;;;;2.19;100.00;97272.41;3942461;74;43318;-18
2020/12/31 10:22:11;;;;;;;6.67;4.23;;;;;;;2.28;100.00;97260.47;3939955;74;43665;-18
2020/12/31 10:27:17;;;;;;;6.13;4.30;;;;;;;2.39;100.00;97256.86;3938375;73;44128;-18
2020/12/31 10:32:22;;;;;;;7.70;4.23;;;;;;;2.53;100.00;97247.63;3937943;74;44050;-18
2020/12/31 10:37:28;;;;;;;5.43;4.27;;;;;;;2.64;100.00;97235.16;3921871;74;43717;-18
2020/12/31 10:42:34;;;;;;;5.97;4.60;;;;;;;2.74;100.00;97232.86;3897356;75;43363;-18
2020/12/31 10:47:40;;;;;;;6.83;4.93;;;;;;;2.76;100.00;97223.41;3895298;75;44252;-18
2020/12/31 10:52:46;;;;;;;5.97;4.20;;;;;;;2.95;100.00;97215.89;3899912;75;44831;-18
2020/12/31 10:57:55;;;;;;;6.43;4.57;;;;;;;3.03;100.00;97209.35;3898806;75;43592;-18
2020/12/31 11:03:01;;;;;;;6.73;4.60;;;;;;;3.02;100.00;97203.67;3871598;74;43372;-18
2020/12/31 11:08:07;;;;;;;7.00;4.80;;;;;;;2.93;100.00;97197.42;3876694;75;44068;-18
2020/12/31 11:13:13;;;;;;;6.30;4.30;;;;;;;2.92;100.00;97195.73;3894744;74;43013;-18
2020/12/31 11:18:19;;;;;;;5.70;3.90;;;;;;;2.81;100.00;97182.61;3903725;75;44115;-18
2020/12/31 11:23:25;;;;;;;5.97;4.00;;;;;;;2.78;100.00;97177.56;3922028;75;44046;-19
2020/12/31 11:28:31;;;;;;;5.30;3.73;;;;;;;2.81;100.00;97163.98;3886263;75;44059;-18
2020/12/31 11:33:37;;;;;;;6.17;4.27;;;;;;;2.80;100.00;97162.30;3932696;74;43464;-17
2020/12/31 11:38:43;;;;;;;5.63;4.07;;;;;;;2.85;100.00;97163.20;3924542;74;44733;-19
2020/12/31 11:43:49;;;;;;;6.90;4.40;;;;;;;2.88;100.00;97160.27;3868766;75;43691;-18
2020/12/31 11:48:55;;;;;;;6.87;4.47;;;;;;;2.87;100.00;97151.94;3876932;74;44018;-18
2020/12/31 11:54:02;;;;;;;5.77;4.10;;;;;;;2.95;100.00;97154.70;3898861;74;43196;-18
2020/12/31 11:59:08;;;;;;;6.53;4.80;;;;;;;2.97;100.00;97150.55;3884935;75;44632;-18
2020/12/31 12:04:13;;;;;;;4.73;3.57;;;;;;;3.00;100.00;97151.09;3880621;74;44147;-18
2020/12/31 12:09:19;;;;;;;4.83;3.60;;;;;;;3.08;100.00;97149.91;3882715;75;43371;-18
2020/12/31 12:14:25;;;;;;;6.07;4.10;;;;;;;3.08;100.00;97144.58;3867019;77;44082;-18
2020/12/31 12:19:31;;;;;;;5.10;3.67;;;;;;;3.14;100.00;97139.17;3893864;75;43682;-18
2020/12/31 12:24:37;;;;;;;3.60;2.70;;;;;;;3.23;100.00;97128.14;3934112;75;44035;-18
2020/12/31 12:29:43;;;;;;;4.53;3.20;;;;;;;3.19;100.00;97125.42;3933582;75;43152;-18
2020/12/31 12:34:49;;;;;;;5.23;3.73;;;;;;;3.24;100.00;97117.81;3933918;75;43736;-19
2020/12/31 12:39:55;;;;;;;5.27;3.60;;;;;;;3.29;100.00;97124.05;3871366;74;44830;-18
2020/12/31 12:45:03;;;;;;;5.50;3.70;;;;;;;3.20;100.00;97117.28;3919848;75;43965;-18
2020/12/31 12:50:11;;;;;;;5.83;4.17;;;;;;;3.20;100.00;97111.95;3911946;75;44183;-18
2020/12/31 12:55:18;;;;;;;5.97;3.93;;;;;;;3.14;100.00;97106.38;3895853;75;43701;-18
2020/12/31 13:00:24;;;;;;;4.60;3.17;;;;;;;3.15;100.00;97109.39;3896176;74;43447;-18
2020/12/31 13:05:30;;;;;;;4.57;3.40;;;;;;;3.17;100.00;97100.77;3881373;75;44061;-18
2020/12/31 13:10:36;;;;;;;4.90;3.77;;;;;;;3.18;100.00;97093.14;3876817;74;43549;-18
2020/12/31 13:15:43;;;;;;;4.90;3.23;;;;;;;3.17;100.00;97093.64;3866631;75;43665;-18
2020/12/31 13:20:49;;;;;;;4.27;3.40;;;;;;;3.15;100.00;97088.10;3898046;74;44054;-18
2020/12/31 13:25:57;;;;;;;5.30;3.23;;;;;;;3.19;100.00;97092.16;3871693;75;44027;-18
2020/12/31 13:31:03;;;;;;;4.83;3.00;;;;;;;3.22;100.00;97089.20;3870985;75;43497;-18
2020/12/31 13:36:11;;;;;;;4.07;3.23;;;;;;;3.24;100.00;97087.20;3854179;75;44041;-18
2020/12/31 13:41:17;;;;;;;4.83;3.30;;;;;;;3.23;97.27;97082.90;3943432;73;43281;-18
2020/12/31 13:46:24;;;;;;;4.27;2.93;;;;;;;3.28;99.00;97075.29;3916351;74;43578;-18
2020/12/31 13:51:30;;;;;;;4.93;3.30;;;;;;;3.31;100.00;97073.67;3953278;74;42949;-18
2020/12/31 13:56:36;;;;;;;4.77;3.27;;;;;;;3.24;98.76;97069.91;3919095;74;44144;-18
2020/12/31 14:01:43;;;;;;;5.07;3.33;;;;;;;3.22;96.86;97065.25;3973289;74;44069;-18
2020/12/31 14:06:48;;;;;;;4.57;3.23;;;;;;;3.29;100.00;97066.83;3973384;74;44067;-18
2020/12/31 14:11:54;;;;;;;6.90;5.20;;;;;;;3.30;100.00;97064.01;3970249;73;44405;-18
2020/12/31 14:17:01;;;;;;;4.10;3.33;;;;;;;3.29;100.00;97071.64;3925340;74;43920;-18
2020/12/31 14:22:08;;;;;;;5.57;4.10;;;;;;;3.27;100.00;97061.63;3974231;74;43551;-19
2020/12/31 14:27:14;;;;;;;5.57;3.80;;;;;;;3.29;100.00;97062.33;3972257;74;43411;-18
2020/12/31 14:32:20;;;;;;;4.50;3.23;;;;;;;3.22;100.00;97055.43;3893452;76;43315;-18
2020/12/31 14:37:28;;;;;;;4.60;3.33;;;;;;;3.10;100.00;97059.78;3909402;74;43042;-18
2020/12/31 14:42:34;;;;;;;4.87;3.27;;;;;;;3.16;100.00;97055.19;3867574;75;43354;-18
2020/12/31 14:47:41;;;;;;;5.00;3.87;;;;;;;3.13;100.00;97059.47;3879657;74;44122;-19
2020/12/31 14:52:49;;;;;;;6.10;4.30;;;;;;;3.07;100.00;97057.75;3897601;74;43326;-19
2020/12/31 14:57:58;;;;;;;6.57;4.07;;;;;;;3.07;100.00;97059.56;3899021;74;43391;-17
2020/12/31 15:03:05;;;;;;;6.33;4.20;;;;;;;3.00;100.00;97062.48;3900120;74;43317;-19
2020/12/31 15:08:11;;;;;;;6.33;4.43;;;;;;;2.90;100.00;97064.70;3897565;75;43674;-17
2020/12/31 15:13:17;;;;;;;7.03;4.50;;;;;;;2.85;100.00;97069.61;3934714;74;44056;-17
2020/12/31 15:18:25;;;;;;;6.37;4.37;;;;;;;2.77;100.00;97075.65;3930811;74;43709;-17
2020/12/31 15:23:30;;;;;;;7.37;4.77;;;;;;;2.71;100.00;97077.57;3904867;75;45070;-18
2020/12/31 15:28:40;;;;;;;6.73;4.60;;;;;;;2.66;100.00;97077.66;3895630;75;43344;-18
2020/12/31 15:33:46;;;;;;;5.87;4.47;;;;;;;2.63;100.00;97082.78;3918524;74;43435;-18
2020/12/31 15:38:53;;;;;;;5.57;4.27;;;;;;;2.62;100.00;97081.10;3893267;74;43134;-18
2020/12/31 15:43:59;;;;;;;6.97;4.87;;;;;;;2.58;100.00;97077.05;3935375;74;43685;-18
2020/12/31 15:49:04;;;;;;;6.63;4.70;;;;;;;2.52;100.00;97082.95;3913022;73;44046;-19
2020/12/31 15:54:11;;;;;;;8.00;4.57;;;;;;;2.48;100.00;97077.56;3907024;74;43459;-20
2020/12/31 15:59:17;;;;;;;7.27;4.90;;;;;;;2.42;100.00;97078.47;3950076;74;43713;-17
2020/12/31 16:04:23;;;;;;;7.33;4.77;;;;;;;2.37;100.00;97076.75;3967343;74;44103;-17
2020/12/31 16:09:28;;;;;;;6.37;4.67;;;;;;;2.26;100.00;97068.44;3929973;74;43365;-17
2020/12/31 16:14:35;;;;;;;71.80;30.23;;;;;;;2.18;100.00;97068.79;3921239;74;43703;-19
2020/12/31 16:19:41;;;;;;;16.63;9.77;;;;;;;2.15;100.00;97073.44;3927825;74;43724;-17
2020/12/31 16:24:47;;;;;;;7.43;5.27;;;;;;;2.10;100.00;97071.67;3971673;73;43441;-18
2020/12/31 16:29:54;;;;;;;8.07;5.30;;;;;;;2.01;100.00;97072.53;3963780;74;44405;-17
2020/12/31 16:35:00;;;;;;;19.73;11.77;;;;;;;2.00;100.00;97073.00;3964087;74;44032;-18
2020/12/31 16:40:08;;;;;;;46.60;31.70;;;;;;;1.97;100.00;97069.80;3928441;74;44140;-18
2020/12/31 16:45:15;;;;;;;340.50;163.67;;;;;;;1.97;100.00;97073.78;3957347;74;44389;-18
2020/12/31 16:50:21;;;;;;;137.60;70.77;;;;;;;2.00;100.00;97062.38;3937883;74;44120;-18
2020/12/31 16:55:27;;;;;;;9.17;6.13;;;;;;;1.99;100.00;97063.86;3937959;73;43299;-18
2020/12/31 17:00:33;;;;;;;9.57;6.97;;;;;;;2.04;100.00;97073.58;3970369;74;44075;-18
2020/12/31 17:05:39;;;;;;;23.23;16.33;;;;;;;2.07;100.00;97077.27;3935018;74;44742;-17
2020/12/31 17:10:45;;;;;;;60.53;37.83;;;;;;;2.14;100.00;97076.21;3926593;74;44016;-17
2020/12/31 17:15:52;;;;;;;19.00;12.77;;;;;;;2.14;100.00;97081.05;3903953;74;43447;-18
2020/12/31 17:20:58;;;;;;;8.93;6.50;;;;;;;2.14;100.00;97081.05;3926357;74;43690;-17
2020/12/31 17:26:05;;;;;;;7.60;5.23;;;;;;;2.14;100.00;97071.75;3912899;73;44044;-18
2020/12/31 17:31:10;;;;;;;7.17;5.27;;;;;;;2.17;100.00;97077.77;3951697;74;43361;-18
2020/12/31 17:36:16;;;;;;;7.73;5.53;;;;;;;2.18;100.00;97074.95;3954426;74;43175;-18
2020/12/31 17:41:23;;;;;;;7.80;5.13;;;;;;;2.20;100.00;97080.12;3937758;73;42864;-18
2020/12/31 17:46:29;;;;;;;7.33;5.40;;;;;;;2.20;100.00;97082.77;3974616;74;43145;-18
2020/12/31 17:51:36;;;;;;;6.40;5.07;;;;;;;2.20;100.00;97078.31;3909578;74;43711;-18
2020/12/31 17:56:42;;;;;;;7.50;5.30;;;;;;;2.20;100.00;97069.49;3927685;73;43701;-18
2020/12/31 18:01:48;;;;;;;6.07;4.60;;;;;;;2.19;100.00;97073.13;3829935;76;44319;-18
2020/12/31 18:06:54;;;;;;;8.10;5.30;;;;;;;2.18;100.00;97066.13;3812618;78;43667;-18
2020/12/31 18:11:59;;;;;;;6.93;5.37;;;;;;;2.16;100.00;97068.94;3843794;76;44046;-18
2020/12/31 18:17:05;;;;;;;7.63;5.47;;;;;;;2.17;100.00;97065.31;3958447;74;43422;-18
2020/12/31 18:22:11;;;;;;;8.20;5.97;;;;;;;2.12;100.00;97066.21;3821878;77;43286;-18
2020/12/31 18:27:17;;;;;;;12.43;7.30;;;;;;;2.12;100.00;97068.39;3825902;76;43730;-18
2020/12/31 18:32:23;;;;;;;15.60;9.57;;;;;;;2.13;100.00;97068.75;3822054;76;44846;-18
2020/12/31 18:37:28;;;;;;;14.43;9.10;;;;;;;2.14;100.00;97061.59;3819125;77;43357;-18
2020/12/31 18:42:40;;;;;;;13.97;8.90;;;;;;;2.16;100.00;97058.31;3924094;74;44091;-18
2020/12/31 18:47:48;;;;;;;8.57;5.90;;;;;;;2.15;100.00;97057.97;3964855;74;44050;-18
2020/12/31 18:52:56;;;;;;;7.33;5.60;;;;;;;2.09;100.00;97055.89;3937529;74;43684;-18
2020/12/31 18:58:01;;;;;;;6.70;5.00;;;;;;;2.12;100.00;97063.55;3951117;74;43687;-18
2020/12/31 19:03:07;;;;;;;8.80;6.00;;;;;;;2.10;100.00;97066.36;3933456;73;43108;-18
2020/12/31 19:08:13;;;;;;;8.03;5.63;;;;;;;2.08;100.00;97069.64;3720574;76;43496;-18
2020/12/31 19:13:20;;;;;;;14.97;8.97;;;;;;;2.05;100.00;97071.28;3588867;82;44125;-18
2020/12/31 19:18:26;;;;;;;6.80;5.10;;;;;;;1.98;100.00;97068.81;3720053;80;43722;-23
2020/12/31 19:23:32;;;;;;;9.70;5.70;;;;;;;1.94;100.00;97075.41;3718365;80;44068;-18
2020/12/31 19:28:37;;;;;;;8.27;5.60;;;;;;;1.90;100.00;97081.97;3705205;80;44604;-19
2020/12/31 19:33:43;;;;;;;7.93;5.60;;;;;;;1.85;100.00;97079.23;3710937;78;44132;-19
2020/12/31 19:38:49;;;;;;;7.27;5.77;;;;;;;1.85;100.00;97080.56;3664412;80;43709;-18
2020/12/31 19:43:55;;;;;;;7.07;5.27;;;;;;;1.80;100.00;97084.14;3764359;77;44026;-18
2020/12/31 19:49:01;;;;;;;72.70;38.67;;;;;;;1.76;100.00;97085.89;3778468;78;43619;-18
2020/12/31 19:54:07;;;;;;;97.20;62.13;;;;;;;1.71;100.00;97090.26;3774102;77;44050;-18
2020/12/31 19:59:15;;;;;;;78.67;51.67;;;;;;;1.70;100.00;97096.57;3777333;77;44046;-18
2020/12/31 20:04:21;;;;;;;54.13;37.63;;;;;;;1.68;100.00;97099.84;3778682;77;44027;-18
2020/12/31 20:09:27;;;;;;;114.13;62.00;;;;;;;1.67;100.00;97100.83;3755181;77;44046;-18
2020/12/31 20:14:33;;;;;;;21.77;14.30;;;;;;;1.66;100.00;97107.94;3680938;78;44525;-18
2020/12/31 20:19:39;;;;;;;11.23;7.40;;;;;;;1.65;100.00;97105.42;3773747;77;44046;-18
2020/12/31 20:24:45;;;;;;;10.27;6.23;;;;;;;1.64;100.00;97108.58;3759290;78;44124;-18
2020/12/31 20:29:51;;;;;;;8.40;6.07;;;;;;;1.62;100.00;97111.00;3695184;79;43355;-18
2020/12/31 20:34:57;;;;;;;8.13;5.93;;;;;;;1.64;100.00;97115.69;3773616;78;44034;-18
2020/12/31 20:40:03;;;;;;;10.37;6.10;;;;;;;1.64;100.00;97106.40;3769804;77;44149;-18
2020/12/31 20:45:11;;;;;;;8.60;6.13;;;;;;;1.63;100.00;97109.55;3724357;78;43697;-18
2020/12/31 20:50:17;;;;;;;9.77;7.07;;;;;;;1.52;100.00;97115.81;3681459;80;43678;-18
2020/12/31 20:55:22;;;;;;;10.27;6.37;;;;;;;1.49;100.00;97122.71;3707861;78;43431;-18
2020/12/31 21:00:28;;;;;;;9.50;6.40;;;;;;;1.56;100.00;97122.18;3689293;80;43466;-18
2020/12/31 21:05:34;;;;;;;8.47;6.33;;;;;;;1.58;100.00;97123.72;3705648;80;44053;-18
2020/12/31 21:10:40;;;;;;;277.30;167.37;;;;;;;1.62;100.00;97118.97;3691017;78;44068;-18
2020/12/31 21:15:46;;;;;;;213.60;153.97;;;;;;;1.64;100.00;97115.69;3618462;80;43976;-18
2020/12/31 21:20:52;;;;;;;25.73;16.70;;;;;;;1.62;100.00;97125.13;3673997;79;43403;-18
2020/12/31 21:25:58;;;;;;;15.70;9.97;;;;;;;1.60;100.00;97124.89;3642617;80;43387;-18
2020/12/31 21:31:03;;;;;;;18.63;11.23;;;;;;;1.54;100.00;97129.79;3693598;78;44042;-18
2020/12/31 21:36:15;;;;;;;16.70;10.20;;;;;;;1.55;100.00;97129.28;3701753;79;44038;-18
2020/12/31 21:41:23;;;;;;;12.77;8.43;;;;;;;1.55;100.00;97133.27;3703043;79;43342;-18
2020/12/31 21:46:31;;;;;;;12.83;8.33;;;;;;;1.59;100.00;97136.02;3728844;78;44157;-18
2020/12/31 21:51:37;;;;;;;13.73;8.93;;;;;;;1.61;100.00;97131.88;3707139;78;43381;-18
2020/12/31 21:56:43;;;;;;;11.60;8.07;;;;;;;1.49;100.00;97124.04;3727605;79;43090;-18
2020/12/31 22:01:49;;;;;;;13.20;8.17;;;;;;;1.54;100.00;97128.46;3706102;79;43483;-18
2020/12/31 22:06:55;;;;;;;12.70;9.30;;;;;;;1.58;100.00;97131.68;3729576;79;43497;-18
2020/12/31 22:12:01;;;;;;;25.10;18.07;;;;;;;1.57;100.00;97130.00;3712533;79;44022;-18
2020/12/31 22:17:07;;;;;;;14.47;9.10;;;;;;;1.56;100.00;97130.97;3609437;81;43343;-18
2020/12/31 22:22:12;;;;;;;10.00;7.13;;;;;;;1.56;100.00;97130.14;3642734;80;44002;-18
2020/12/31 22:27:18;;;;;;;8.73;6.33;;;;;;;1.53;100.00;97126.78;3657474;80;43260;-18
2020/12/31 22:32:24;;;;;;;9.07;6.20;;;;;;;1.51;100.00;97126.08;3711865;78;44368;-18
2020/12/31 22:37:30;;;;;;;9.13;6.07;;;;;;;1.52;100.00;97117.14;3729538;78;43448;-18
2020/12/31 22:42:40;;;;;;;10.00;6.37;;;;;;;1.56;100.00;97119.53;3729721;78;44146;-18
2020/12/31 22:47:48;;;;;;;9.30;6.20;;;;;;;1.56;100.00;97115.05;3719718;78;44070;-18
2020/12/31 22:52:55;;;;;;;8.63;5.77;;;;;;;1.59;100.00;97121.92;3660537;80;43397;-18
2020/12/31 22:58:01;;;;;;;8.77;6.20;;;;;;;1.60;100.00;97111.63;3640336;79;44035;-18
2020/12/31 23:03:07;;;;;;;10.27;6.60;;;;;;;1.62;100.00;97113.66;3717652;78;43698;-18
2020/12/31 23:08:13;;;;;;;13.27;9.07;;;;;;;1.62;100.00;97117.64;3705695;78;44108;-18
2020/12/31 23:13:19;;;;;;;29.40;19.47;;;;;;;1.64;100.00;97118.34;3656859;80;43730;-18
2020/12/31 23:18:24;;;;;;;196.07;104.60;;;;;;;1.67;100.00;97114.09;3643090;79;43469;-19
2020/12/31 23:23:30;;;;;;;385.80;275.67;;;;;;;1.67;100.00;97118.08;3662542;80;43138;-16
2020/12/31 23:28:36;;;;;;;131.93;86.40;;;;;;;1.67;100.00;97112.27;3643106;79;43723;-17
2020/12/31 23:33:42;;;;;;;302.37;174.23;;;;;;;1.67;100.00;97111.44;3727150;78;44061;-17
2020/12/31 23:38:48;;;;;;;205.80;114.83;;;;;;;1.67;100.00;97109.61;3707306;79;43490;-17
2020/12/31 23:43:54;;;;;;;188.87;99.23;;;;;;;1.69;100.00;97109.49;3655859;79;44077;-17
2020/12/31 23:49:01;;;;;;;67.97;37.80;;;;;;;1.69;100.00;97109.49;3702059;79;44053;-18
2020/12/31 23:54:09;;;;;;;26.20;15.10;;;;;;;1.69;100.00;97102.86;3700561;78;43677;-17
2020/12/31 23:59:16;;;;;;;82.33;49.73;;;;;;;1.67;100.00;97111.44;3697217;79;43453;-17
